sensor_id;sensor_type;location;lat;lon;timestamp;pressure;altitude;pressure_sealevel;temperature;humidity
9839;BME280;4958;48.150;11.506;2023-03-24T00:01:16;94980.59;;;15.30;57.15
9839;BME280;4958;48.150;11.506;2023-03-24T00:03:44;94980.97;;;15.33;57.03
9839;BME280;4958;48.150;11.506;2023-03-24T00:06:12;94973.63;;;15.30;56.85
9839;BME280;4958;48.150;11.506;2023-03-24T00:08:40;94973.47;;;15.25;57.29
9839;BME280;4958;48.150;11.506;2023-03-24T00:11:09;94965.03;;;15.30;57.00
9839;BME280;4958;48.150;11.506;2023-03-24T00:13:37;94951.72;;;15.26;56.89
9839;BME280;4958;48.150;11.506;2023-03-24T00:16:05;94946.06;;;15.17;56.89
9839;BME280;4958;48.150;11.506;2023-03-24T00:18:33;94946.38;;;15.09;56.54
9839;BME280;4958;48.150;11.506;2023-03-24T00:21:03;94939.94;;;15.12;56.23
9839;BME280;4958;48.150;11.506;2023-03-24T00:23:30;94937.13;;;15.13;56.36
9839;BME280;4958;48.150;11.506;2023-03-24T00:25:59;94934.56;;;15.13;56.04
9839;BME280;4958;48.150;11.506;2023-03-24T00:28:27;94927.56;;;15.14;55.97
9839;BME280;4958;48.150;11.506;2023-03-24T00:30:54;94917.53;;;15.17;55.81
9839;BME280;4958;48.150;11.506;2023-03-24T00:33:20;94913.53;;;15.03;56.52
9839;BME280;4958;48.150;11.506;2023-03-24T00:35:48;94901.47;;;14.97;56.64
9839;BME280;4958;48.150;11.506;2023-03-24T00:38:16;94907.78;;;15.01;56.42
9839;BME280;4958;48.150;11.506;2023-03-24T00:40:44;94912.75;;;15.03;56.35
9839;BME280;4958;48.150;11.506;2023-03-24T00:43:10;94911.16;;;15.02;56.23
9839;BME280;4958;48.150;11.506;2023-03-24T00:45:37;94912.19;;;15.01;56.29
9839;BME280;4958;48.150;11.506;2023-03-24T00:48:09;94908.81;;;15.00;56.29
9839;BME280;4958;48.150;11.506;2023-03-24T00:50:36;94906.09;;;15.07;56.06
9839;BME280;4958;48.150;11.506;2023-03-24T00:53:02;94910.16;;;15.03;56.07
9839;BME280;4958;48.150;11.506;2023-03-24T00:55:30;94904.41;;;15.01;56.21
9839;BME280;4958;48.150;11.506;2023-03-24T00:57:58;94912.66;;;15.09;55.97
9839;BME280;4958;48.150;11.506;2023-03-24T01:00:25;94909.97;;;15.16;55.47
9839;BME280;4958;48.150;11.506;2023-03-24T01:02:53;94917.41;;;15.12;55.43
9839;BME280;4958;48.150;11.506;2023-03-24T01:05:22;94911.00;;;15.15;55.40
9839;BME280;4958;48.150;11.506;2023-03-24T01:07:49;94927.00;;;15.24;55.41
9839;BME280;4958;48.150;11.506;2023-03-24T01:10:18;94926.34;;;15.28;54.86
9839;BME280;4958;48.150;11.506;2023-03-24T01:12:47;94921.75;;;15.30;54.40
9839;BME280;4958;48.150;11.506;2023-03-24T01:15:15;94929.22;;;15.38;54.61
9839;BME280;4958;48.150;11.506;2023-03-24T01:17:42;94924.34;;;15.42;54.41
9839;BME280;4958;48.150;11.506;2023-03-24T01:20:11;94916.69;;;15.47;54.41
9839;BME280;4958;48.150;11.506;2023-03-24T01:22:39;94910.06;;;15.51;54.40
9839;BME280;4958;48.150;11.506;2023-03-24T01:25:10;94907.69;;;15.49;53.77
9839;BME280;4958;48.150;11.506;2023-03-24T01:27:39;94904.31;;;15.49;53.71
9839;BME280;4958;48.150;11.506;2023-03-24T01:30:08;94912.22;;;15.54;53.85
9839;BME280;4958;48.150;11.506;2023-03-24T01:32:37;94906.44;;;15.52;53.86
9839;BME280;4958;48.150;11.506;2023-03-24T01:35:04;94891.91;;;15.51;53.82
9839;BME280;4958;48.150;11.506;2023-03-24T01:37:30;94896.44;;;15.56;53.77
9839;BME280;4958;48.150;11.506;2023-03-24T01:39:57;94888.03;;;15.42;53.95
9839;BME280;4958;48.150;11.506;2023-03-24T01:42:25;94883.06;;;15.40;54.38
9839;BME280;4958;48.150;11.506;2023-03-24T01:44:56;94880.72;;;15.39;54.43
9839;BME280;4958;48.150;11.506;2023-03-24T01:47:24;94872.25;;;15.32;54.34
9839;BME280;4958;48.150;11.506;2023-03-24T01:49:53;94867.38;;;15.24;54.77
9839;BME280;4958;48.150;11.506;2023-03-24T01:52:24;94868.84;;;15.19;54.80
9839;BME280;4958;48.150;11.506;2023-03-24T01:54:54;94864.19;;;15.21;54.91
9839;BME280;4958;48.150;11.506;2023-03-24T01:57:24;94868.72;;;15.26;54.52
9839;BME280;4958;48.150;11.506;2023-03-24T01:59:55;94881.97;;;15.36;54.35
9839;BME280;4958;48.150;11.506;2023-03-24T02:02:24;94876.75;;;15.36;53.90
9839;BME280;4958;48.150;11.506;2023-03-24T02:04:54;94885.22;;;15.43;53.97
9839;BME280;4958;48.150;11.506;2023-03-24T02:07:30;94877.44;;;15.43;53.84
9839;BME280;4958;48.150;11.506;2023-03-24T02:09:58;94881.03;;;15.42;53.97
9839;BME280;4958;48.150;11.506;2023-03-24T02:12:24;94875.28;;;15.40;54.40
9839;BME280;4958;48.150;11.506;2023-03-24T02:14:51;94880.47;;;15.40;54.23
9839;BME280;4958;48.150;11.506;2023-03-24T02:17:31;94876.31;;;15.39;54.23
9839;BME280;4958;48.150;11.506;2023-03-24T02:20:29;94878.66;;;15.41;54.15
9839;BME280;4958;48.150;11.506;2023-03-24T02:28:59;94878.66;;;15.41;54.85
9839;BME280;4958;48.150;11.506;2023-03-24T02:31:45;94873.72;;;15.39;54.97
9839;BME280;4958;48.150;11.506;2023-03-24T02:34:52;94875.97;;;15.36;55.36
9839;BME280;4958;48.150;11.506;2023-03-24T02:37:35;94877.00;;;15.35;55.21
9839;BME280;4958;48.150;11.506;2023-03-24T02:40:17;94885.44;;;15.30;55.29
9839;BME280;4958;48.150;11.506;2023-03-24T02:42:56;94873.25;;;15.19;55.55
9839;BME280;4958;48.150;11.506;2023-03-24T02:45:33;94865.69;;;15.17;56.70
9839;BME280;4958;48.150;11.506;2023-03-24T02:48:17;94856.13;;;14.88;58.29
9839;BME280;4958;48.150;11.506;2023-03-24T02:50:49;94864.22;;;14.80;57.26
9839;BME280;4958;48.150;11.506;2023-03-24T02:53:19;94878.44;;;14.89;57.10
9839;BME280;4958;48.150;11.506;2023-03-24T02:55:52;94859.06;;;14.92;57.17
9839;BME280;4958;48.150;11.506;2023-03-24T02:58:23;94857.50;;;15.02;56.96
9839;BME280;4958;48.150;11.506;2023-03-24T03:00:55;94878.81;;;15.04;56.99
9839;BME280;4958;48.150;11.506;2023-03-24T03:03:27;94859.88;;;15.04;56.78
9839;BME280;4958;48.150;11.506;2023-03-24T03:06:02;94858.78;;;15.11;57.20
9839;BME280;4958;48.150;11.506;2023-03-24T03:08:32;94858.13;;;15.16;56.77
9839;BME280;4958;48.150;11.506;2023-03-24T03:11:02;94859.25;;;15.20;57.52
9839;BME280;4958;48.150;11.506;2023-03-24T03:13:33;94859.59;;;15.24;57.90
9839;BME280;4958;48.150;11.506;2023-03-24T03:16:04;94853.38;;;15.25;59.52
9839;BME280;4958;48.150;11.506;2023-03-24T03:18:38;94854.84;;;15.20;59.55
9839;BME280;4958;48.150;11.506;2023-03-24T03:21:08;94845.72;;;15.18;59.18
9839;BME280;4958;48.150;11.506;2023-03-24T03:23:39;94843.69;;;15.20;58.47
9839;BME280;4958;48.150;11.506;2023-03-24T03:26:11;94837.72;;;15.19;58.89
9839;BME280;4958;48.150;11.506;2023-03-24T03:28:43;94832.97;;;15.16;59.12
9839;BME280;4958;48.150;11.506;2023-03-24T03:31:17;94830.50;;;15.21;58.19
9839;BME280;4958;48.150;11.506;2023-03-24T03:33:51;94819.44;;;15.26;58.57
9839;BME280;4958;48.150;11.506;2023-03-24T03:36:21;94808.50;;;15.24;59.22
9839;BME280;4958;48.150;11.506;2023-03-24T03:38:54;94805.13;;;15.12;59.65
9839;BME280;4958;48.150;11.506;2023-03-24T03:41:24;94794.41;;;14.97;60.21
9839;BME280;4958;48.150;11.506;2023-03-24T03:43:51;94795.28;;;14.91;60.50
9839;BME280;4958;48.150;11.506;2023-03-24T03:46:18;94776.56;;;14.77;61.03
9839;BME280;4958;48.150;11.506;2023-03-24T03:48:45;94776.41;;;14.72;61.09
9839;BME280;4958;48.150;11.506;2023-03-24T03:51:12;94765.69;;;14.57;62.02
9839;BME280;4958;48.150;11.506;2023-03-24T03:53:46;94755.75;;;14.54;61.88
9839;BME280;4958;48.150;11.506;2023-03-24T03:56:14;94757.34;;;14.55;61.29
9839;BME280;4958;48.150;11.506;2023-03-24T03:58:46;94767.25;;;14.58;61.52
9839;BME280;4958;48.150;11.506;2023-03-24T04:01:15;94756.78;;;14.64;60.84
9839;BME280;4958;48.150;11.506;2023-03-24T04:04:08;94756.78;;;14.64;61.26
9839;BME280;4958;48.150;11.506;2023-03-24T04:06:38;94765.03;;;14.73;60.32
9839;BME280;4958;48.150;11.506;2023-03-24T04:09:19;94751.00;;;14.80;60.63
9839;BME280;4958;48.150;11.506;2023-03-24T04:12:01;94750.50;;;14.83;59.90
9839;BME280;4958;48.150;11.506;2023-03-24T04:14:42;94753.47;;;14.87;60.19
9839;BME280;4958;48.150;11.506;2023-03-24T04:17:23;94759.00;;;14.91;60.05
9839;BME280;4958;48.150;11.506;2023-03-24T04:19:59;94751.09;;;14.85;59.88
9839;BME280;4958;48.150;11.506;2023-03-24T04:22:36;94756.41;;;14.91;59.94
9839;BME280;4958;48.150;11.506;2023-03-24T04:25:11;94750.41;;;14.90;59.45
9839;BME280;4958;48.150;11.506;2023-03-24T04:27:43;94752.78;;;14.92;59.78
9839;BME280;4958;48.150;11.506;2023-03-24T04:30:15;94757.97;;;14.92;59.42
9839;BME280;4958;48.150;11.506;2023-03-24T04:32:50;94761.81;;;14.89;59.13
9839;BME280;4958;48.150;11.506;2023-03-24T04:35:25;94758.06;;;14.85;59.09
9839;BME280;4958;48.150;11.506;2023-03-24T04:37:58;94757.19;;;14.91;58.81
9839;BME280;4958;48.150;11.506;2023-03-24T04:40:28;94760.78;;;14.90;58.28
9839;BME280;4958;48.150;11.506;2023-03-24T04:42:59;94753.09;;;14.83;58.93
9839;BME280;4958;48.150;11.506;2023-03-24T04:45:29;94762.47;;;14.84;58.75
9839;BME280;4958;48.150;11.506;2023-03-24T04:47:59;94761.00;;;14.89;58.49
9839;BME280;4958;48.150;11.506;2023-03-24T04:50:27;94761.72;;;14.96;58.46
9839;BME280;4958;48.150;11.506;2023-03-24T04:52:56;94769.94;;;14.93;58.39
9839;BME280;4958;48.150;11.506;2023-03-24T04:55:41;94765.75;;;14.92;58.45
9839;BME280;4958;48.150;11.506;2023-03-24T04:58:10;94775.63;;;14.83;58.55
9839;BME280;4958;48.150;11.506;2023-03-24T05:00:38;94762.94;;;14.81;58.66
9839;BME280;4958;48.150;11.506;2023-03-24T05:03:05;94758.50;;;14.82;58.27
9839;BME280;4958;48.150;11.506;2023-03-24T05:05:32;94764.25;;;14.84;57.91
9839;BME280;4958;48.150;11.506;2023-03-24T05:07:58;94770.00;;;14.86;58.10
9839;BME280;4958;48.150;11.506;2023-03-24T05:10:25;94767.56;;;14.91;57.76
9839;BME280;4958;48.150;11.506;2023-03-24T05:12:52;94769.25;;;14.97;57.52
9839;BME280;4958;48.150;11.506;2023-03-24T05:15:19;94777.50;;;15.06;57.38
9839;BME280;4958;48.150;11.506;2023-03-24T05:17:46;94788.56;;;15.13;57.43
9839;BME280;4958;48.150;11.506;2023-03-24T05:20:13;94806.47;;;15.14;57.14
9839;BME280;4958;48.150;11.506;2023-03-24T05:22:39;94811.53;;;15.09;57.99
9839;BME280;4958;48.150;11.506;2023-03-24T05:25:06;94813.56;;;15.07;58.64
9839;BME280;4958;48.150;11.506;2023-03-24T05:27:33;94827.97;;;14.92;59.64
9839;BME280;4958;48.150;11.506;2023-03-24T05:29:59;94833.91;;;14.80;60.09
9839;BME280;4958;48.150;11.506;2023-03-24T05:32:26;94833.34;;;14.78;61.10
9839;BME280;4958;48.150;11.506;2023-03-24T05:34:53;94837.19;;;14.58;62.05
9839;BME280;4958;48.150;11.506;2023-03-24T05:37:20;94827.19;;;14.61;62.23
9839;BME280;4958;48.150;11.506;2023-03-24T05:39:46;94823.94;;;14.66;63.28
9839;BME280;4958;48.150;11.506;2023-03-24T05:42:13;94823.03;;;14.60;63.80
9839;BME280;4958;48.150;11.506;2023-03-24T05:44:40;94812.69;;;14.72;63.66
9839;BME280;4958;48.150;11.506;2023-03-24T05:47:06;94794.03;;;14.81;63.42
9839;BME280;4958;48.150;11.506;2023-03-24T05:49:39;94803.28;;;14.89;63.43
9839;BME280;4958;48.150;11.506;2023-03-24T05:52:08;94810.38;;;14.94;63.91
9839;BME280;4958;48.150;11.506;2023-03-24T05:54:35;94812.41;;;14.92;63.70
9839;BME280;4958;48.150;11.506;2023-03-24T05:57:03;94815.56;;;14.94;64.05
9839;BME280;4958;48.150;11.506;2023-03-24T05:59:32;94820.09;;;14.98;63.71
9839;BME280;4958;48.150;11.506;2023-03-24T06:02:02;94820.53;;;14.95;64.38
9839;BME280;4958;48.150;11.506;2023-03-24T06:04:28;94809.38;;;14.95;63.99
9839;BME280;4958;48.150;11.506;2023-03-24T06:06:55;94800.81;;;14.94;64.10
9839;BME280;4958;48.150;11.506;2023-03-24T06:09:24;94793.47;;;14.91;64.68
9839;BME280;4958;48.150;11.506;2023-03-24T06:11:53;94785.91;;;14.90;63.97
9839;BME280;4958;48.150;11.506;2023-03-24T06:14:19;94771.81;;;14.74;65.12
9839;BME280;4958;48.150;11.506;2023-03-24T06:16:46;94761.66;;;14.72;64.68
9839;BME280;4958;48.150;11.506;2023-03-24T06:19:17;94752.66;;;14.75;65.22
9839;BME280;4958;48.150;11.506;2023-03-24T06:21:48;94761.00;;;14.77;66.16
9839;BME280;4958;48.150;11.506;2023-03-24T06:24:18;94766.06;;;14.83;65.42
9839;BME280;4958;48.150;11.506;2023-03-24T06:26:48;94775.34;;;14.91;63.97
9839;BME280;4958;48.150;11.506;2023-03-24T06:29:33;94780.66;;;14.96;64.22
9839;BME280;4958;48.150;11.506;2023-03-24T06:31:59;94770.06;;;14.98;64.80
9839;BME280;4958;48.150;11.506;2023-03-24T06:34:49;94769.72;;;14.94;64.52
9839;BME280;4958;48.150;11.506;2023-03-24T06:37:17;94761.59;;;14.91;64.85
9839;BME280;4958;48.150;11.506;2023-03-24T06:42:42;94766.22;;;15.00;64.27
9839;BME280;4958;48.150;11.506;2023-03-24T06:45:25;94757.75;;;15.05;64.05
9839;BME280;4958;48.150;11.506;2023-03-24T06:47:52;94749.75;;;15.06;64.22
9839;BME280;4958;48.150;11.506;2023-03-24T06:50:47;94752.47;;;15.11;63.96
9839;BME280;4958;48.150;11.506;2023-03-24T06:53:30;94756.31;;;15.09;64.52
9839;BME280;4958;48.150;11.506;2023-03-24T06:56:13;94763.84;;;15.10;64.54
9839;BME280;4958;48.150;11.506;2023-03-24T07:05:11;94762.72;;;15.06;63.90
9839;BME280;4958;48.150;11.506;2023-03-24T07:07:37;94767.03;;;15.01;64.70
9839;BME280;4958;48.150;11.506;2023-03-24T07:10:06;94773.31;;;15.05;64.47
9839;BME280;4958;48.150;11.506;2023-03-24T07:12:35;94777.25;;;15.07;64.33
9839;BME280;4958;48.150;11.506;2023-03-24T07:15:02;94786.84;;;15.07;64.02
9839;BME280;4958;48.150;11.506;2023-03-24T07:17:29;94788.88;;;15.05;63.79
9839;BME280;4958;48.150;11.506;2023-03-24T07:19:59;94792.47;;;15.04;63.83
9839;BME280;4958;48.150;11.506;2023-03-24T07:22:27;94802.84;;;15.04;64.36
9839;BME280;4958;48.150;11.506;2023-03-24T07:24:53;94812.31;;;14.98;64.45
9839;BME280;4958;48.150;11.506;2023-03-24T07:27:22;94821.00;;;15.04;64.43
9839;BME280;4958;48.150;11.506;2023-03-24T07:29:48;94843.66;;;15.08;64.99
9839;BME280;4958;48.150;11.506;2023-03-24T07:32:15;94833.66;;;15.12;64.81
9839;BME280;4958;48.150;11.506;2023-03-24T07:34:44;94842.53;;;15.04;65.58
9839;BME280;4958;48.150;11.506;2023-03-24T07:37:14;94850.19;;;14.99;65.38
9839;BME280;4958;48.150;11.506;2023-03-24T07:39:45;94857.47;;;14.91;66.18
9839;BME280;4958;48.150;11.506;2023-03-24T07:42:11;94857.25;;;14.80;63.06
9839;BME280;4958;48.150;11.506;2023-03-24T07:44:39;94857.03;;;14.94;63.79
9839;BME280;4958;48.150;11.506;2023-03-24T07:47:05;94860.00;;;15.09;64.39
9839;BME280;4958;48.150;11.506;2023-03-24T07:49:32;94880.19;;;15.07;61.81
9839;BME280;4958;48.150;11.506;2023-03-24T07:52:01;94867.69;;;15.15;62.02
9839;BME280;4958;48.150;11.506;2023-03-24T07:54:30;94880.13;;;15.25;62.03
9839;BME280;4958;48.150;11.506;2023-03-24T07:56:59;94876.16;;;15.23;62.07
9839;BME280;4958;48.150;11.506;2023-03-24T07:59:25;94876.63;;;15.31;62.21
9839;BME280;4958;48.150;11.506;2023-03-24T08:01:52;94874.47;;;15.28;62.40
9839;BME280;4958;48.150;11.506;2023-03-24T08:04:20;94875.63;;;15.32;62.25
9839;BME280;4958;48.150;11.506;2023-03-24T08:06:47;94874.41;;;15.35;62.13
9839;BME280;4958;48.150;11.506;2023-03-24T08:09:13;94878.34;;;15.37;62.25
9839;BME280;4958;48.150;11.506;2023-03-24T08:11:40;94882.06;;;15.41;62.25
9839;BME280;4958;48.150;11.506;2023-03-24T08:14:12;94882.97;;;15.47;62.40
9839;BME280;4958;48.150;11.506;2023-03-24T08:16:38;94874.09;;;15.54;62.17
9839;BME280;4958;48.150;11.506;2023-03-24T08:19:09;94876.59;;;15.61;62.15
9839;BME280;4958;48.150;11.506;2023-03-24T08:21:36;94870.50;;;15.67;62.02
9839;BME280;4958;48.150;11.506;2023-03-24T08:24:02;94879.66;;;15.70;62.99
9839;BME280;4958;48.150;11.506;2023-03-24T08:26:29;94887.78;;;15.73;61.88
9839;BME280;4958;48.150;11.506;2023-03-24T08:29:05;94881.44;;;15.69;61.60
9839;BME280;4958;48.150;11.506;2023-03-24T08:31:34;94887.44;;;15.70;62.05
9839;BME280;4958;48.150;11.506;2023-03-24T08:34:01;94882.81;;;15.72;62.07
9839;BME280;4958;48.150;11.506;2023-03-24T08:36:29;94884.50;;;15.66;62.18
9839;BME280;4958;48.150;11.506;2023-03-24T08:38:55;94892.06;;;15.68;62.60
9839;BME280;4958;48.150;11.506;2023-03-24T08:41:22;94893.75;;;15.74;62.64
9839;BME280;4958;48.150;11.506;2023-03-24T08:43:59;94897.16;;;15.74;62.75
9839;BME280;4958;48.150;11.506;2023-03-24T08:46:25;94900.41;;;15.81;62.45
9839;BME280;4958;48.150;11.506;2023-03-24T08:48:53;94907.09;;;15.77;62.92
9839;BME280;4958;48.150;11.506;2023-03-24T08:51:21;94910.00;;;15.81;62.90
9839;BME280;4958;48.150;11.506;2023-03-24T08:53:48;94911.69;;;15.87;62.68
9839;BME280;4958;48.150;11.506;2023-03-24T08:56:17;94925.25;;;15.89;62.77
9839;BME280;4958;48.150;11.506;2023-03-24T08:58:44;94925.03;;;15.91;63.05
9839;BME280;4958;48.150;11.506;2023-03-24T09:01:12;94917.00;;;15.92;62.57
9839;BME280;4958;48.150;11.506;2023-03-24T09:03:39;94913.97;;;15.95;63.17
9839;BME280;4958;48.150;11.506;2023-03-24T09:06:07;94912.25;;;15.89;64.54
9839;BME280;4958;48.150;11.506;2023-03-24T09:08:36;94910.13;;;15.86;65.94
9839;BME280;4958;48.150;11.506;2023-03-24T09:11:05;94917.81;;;15.93;66.32
9839;BME280;4958;48.150;11.506;2023-03-24T09:13:31;94919.94;;;15.84;66.88
9839;BME280;4958;48.150;11.506;2023-03-24T09:16:00;94911.47;;;15.88;67.11
9839;BME280;4958;48.150;11.506;2023-03-24T09:18:31;94915.09;;;15.87;67.44
9839;BME280;4958;48.150;11.506;2023-03-24T09:20:57;94921.97;;;15.70;65.97
9839;BME280;4958;48.150;11.506;2023-03-24T09:23:25;94919.69;;;15.62;66.93
9839;BME280;4958;48.150;11.506;2023-03-24T09:25:53;94921.84;;;15.65;66.16
9839;BME280;4958;48.150;11.506;2023-03-24T09:28:20;94916.88;;;15.64;66.59
9839;BME280;4958;48.150;11.506;2023-03-24T09:30:46;94930.31;;;15.72;66.53
9839;BME280;4958;48.150;11.506;2023-03-24T09:33:13;94944.75;;;15.68;67.29
9839;BME280;4958;48.150;11.506;2023-03-24T09:35:43;94943.44;;;15.47;69.26
9839;BME280;4958;48.150;11.506;2023-03-24T09:38:21;94954.25;;;15.44;70.39
9839;BME280;4958;48.150;11.506;2023-03-24T09:41:02;94959.66;;;15.43;69.89
9839;BME280;4958;48.150;11.506;2023-03-24T09:43:35;94962.94;;;15.38;70.80
9839;BME280;4958;48.150;11.506;2023-03-24T09:46:05;94961.22;;;15.32;70.76
9839;BME280;4958;48.150;11.506;2023-03-24T09:48:34;94969.66;;;15.28;70.68
9839;BME280;4958;48.150;11.506;2023-03-24T09:51:04;94970.78;;;15.20;72.96
9839;BME280;4958;48.150;11.506;2023-03-24T09:53:38;94959.59;;;15.19;72.87
9839;BME280;4958;48.150;11.506;2023-03-24T09:56:13;94972.72;;;15.06;75.35
9839;BME280;4958;48.150;11.506;2023-03-24T09:59:11;94970.66;;;14.97;76.32
9839;BME280;4958;48.150;11.506;2023-03-24T10:01:49;94974.13;;;14.91;76.82
9839;BME280;4958;48.150;11.506;2023-03-24T10:04:18;94973.91;;;14.92;76.59
9839;BME280;4958;48.150;11.506;2023-03-24T10:06:46;94977.34;;;14.86;76.55
9839;BME280;4958;48.150;11.506;2023-03-24T10:09:22;94975.72;;;14.92;76.42
9839;BME280;4958;48.150;11.506;2023-03-24T10:11:56;94985.06;;;14.93;76.76
9839;BME280;4958;48.150;11.506;2023-03-24T10:14:37;94988.59;;;14.98;76.62
9839;BME280;4958;48.150;11.506;2023-03-24T10:17:14;94980.88;;;14.92;76.88
9839;BME280;4958;48.150;11.506;2023-03-24T10:19:48;94981.19;;;14.83;77.69
9839;BME280;4958;48.150;11.506;2023-03-24T10:22:22;94993.91;;;14.85;78.02
9839;BME280;4958;48.150;11.506;2023-03-24T10:24:55;94989.84;;;14.77;77.80
9839;BME280;4958;48.150;11.506;2023-03-24T10:27:29;94996.28;;;14.86;77.59
9839;BME280;4958;48.150;11.506;2023-03-24T10:30:10;94997.81;;;14.94;76.42
9839;BME280;4958;48.150;11.506;2023-03-24T10:32:37;95005.94;;;14.98;76.57
9839;BME280;4958;48.150;11.506;2023-03-24T10:35:12;95002.00;;;14.95;75.91
9839;BME280;4958;48.150;11.506;2023-03-24T10:37:40;95006.28;;;15.01;75.88
9839;BME280;4958;48.150;11.506;2023-03-24T10:40:13;94998.88;;;15.05;75.68
9839;BME280;4958;48.150;11.506;2023-03-24T10:42:42;94995.16;;;15.01;75.21
9839;BME280;4958;48.150;11.506;2023-03-24T10:45:11;95009.66;;;15.02;74.75
9839;BME280;4958;48.150;11.506;2023-03-24T10:47:41;95003.94;;;15.00;75.10
9839;BME280;4958;48.150;11.506;2023-03-24T10:50:09;95009.41;;;14.92;76.00
9839;BME280;4958;48.150;11.506;2023-03-24T10:52:37;95009.03;;;14.88;75.72
9839;BME280;4958;48.150;11.506;2023-03-24T10:55:06;95014.66;;;14.85;76.73
9839;BME280;4958;48.150;11.506;2023-03-24T10:57:36;95025.91;;;14.79;76.00
9839;BME280;4958;48.150;11.506;2023-03-24T11:00:08;95007.19;;;14.77;75.70
9839;BME280;4958;48.150;11.506;2023-03-24T11:02:40;95015.53;;;14.79;75.47
9839;BME280;4958;48.150;11.506;2023-03-24T11:05:13;95008.88;;;14.65;75.95
9839;BME280;4958;48.150;11.506;2023-03-24T11:07:41;95022.06;;;14.63;75.93
9839;BME280;4958;48.150;11.506;2023-03-24T11:10:13;95018.19;;;14.72;78.23
9839;BME280;4958;48.150;11.506;2023-03-24T11:12:42;95022.00;;;14.70;78.81
9839;BME280;4958;48.150;11.506;2023-03-24T11:15:20;95009.09;;;14.63;80.15
9839;BME280;4958;48.150;11.506;2023-03-24T11:17:52;95004.06;;;14.50;81.69
9839;BME280;4958;48.150;11.506;2023-03-24T11:20:24;95013.22;;;14.52;82.10
9839;BME280;4958;48.150;11.506;2023-03-24T11:22:58;95004.75;;;14.39;83.04
9839;BME280;4958;48.150;11.506;2023-03-24T11:25:26;95004.56;;;14.40;84.66
9839;BME280;4958;48.150;11.506;2023-03-24T11:27:58;94988.38;;;14.45;83.63
9839;BME280;4958;48.150;11.506;2023-03-24T11:30:32;94981.88;;;14.36;84.39
9839;BME280;4958;48.150;11.506;2023-03-24T11:33:01;94979.25;;;14.42;85.00
9839;BME280;4958;48.150;11.506;2023-03-24T11:35:29;94972.56;;;14.53;84.40
9839;BME280;4958;48.150;11.506;2023-03-24T11:38:04;94964.84;;;14.65;82.95
9839;BME280;4958;48.150;11.506;2023-03-24T11:40:31;94962.34;;;14.76;82.54
9839;BME280;4958;48.150;11.506;2023-03-24T11:43:00;94963.47;;;14.99;82.07
9839;BME280;4958;48.150;11.506;2023-03-24T11:45:35;94947.69;;;15.00;81.58
9839;BME280;4958;48.150;11.506;2023-03-24T11:48:10;94945.00;;;15.07;80.77
9839;BME280;4958;48.150;11.506;2023-03-24T11:50:40;94945.00;;;15.07;80.76
9839;BME280;4958;48.150;11.506;2023-03-24T11:53:10;94944.78;;;15.08;80.24
9839;BME280;4958;48.150;11.506;2023-03-24T11:55:43;94942.56;;;15.24;80.26
9839;BME280;4958;48.150;11.506;2023-03-24T11:58:22;94940.47;;;15.32;78.94
9839;BME280;4958;48.150;11.506;2023-03-24T12:00:55;94928.44;;;15.49;77.80
9839;BME280;4958;48.150;11.506;2023-03-24T12:06:33;94918.31;;;15.60;74.72
9839;BME280;4958;48.150;11.506;2023-03-24T12:09:12;94912.72;;;15.74;73.00
9839;BME280;4958;48.150;11.506;2023-03-24T12:11:51;94908.44;;;15.92;73.02
9839;BME280;4958;48.150;11.506;2023-03-24T12:14:28;94900.75;;;15.97;72.26
9839;BME280;4958;48.150;11.506;2023-03-24T12:17:05;94899.72;;;15.98;69.42
9839;BME280;4958;48.150;11.506;2023-03-24T12:19:52;94891.56;;;16.17;69.64
9839;BME280;4958;48.150;11.506;2023-03-24T12:22:34;94890.44;;;16.25;68.04
9839;BME280;4958;48.150;11.506;2023-03-24T12:28:19;94883.34;;;16.20;67.25
9839;BME280;4958;48.150;11.506;2023-03-24T12:30:53;94891.91;;;16.21;67.17
9839;BME280;4958;48.150;11.506;2023-03-24T12:33:34;94899.47;;;16.22;66.14
9839;BME280;4958;48.150;11.506;2023-03-24T12:36:40;94911.00;;;16.27;65.46
9839;BME280;4958;48.150;11.506;2023-03-24T12:39:12;94909.41;;;16.26;65.18
9839;BME280;4958;48.150;11.506;2023-03-24T12:42:02;94911.00;;;16.27;62.85
9839;BME280;4958;48.150;11.506;2023-03-24T12:44:43;94910.88;;;16.21;62.92
9839;BME280;4958;48.150;11.506;2023-03-24T12:47:23;94916.75;;;16.29;62.90
9839;BME280;4958;48.150;11.506;2023-03-24T12:50:06;94913.59;;;16.27;61.85
9839;BME280;4958;48.150;11.506;2023-03-24T12:52:52;94920.28;;;16.34;61.08
9839;BME280;4958;48.150;11.506;2023-03-24T12:55:29;94928.06;;;16.34;60.56
9839;BME280;4958;48.150;11.506;2023-03-24T12:58:02;94914.38;;;16.39;60.40
9839;BME280;4958;48.150;11.506;2023-03-24T13:00:33;94912.22;;;16.36;61.34
9839;BME280;4958;48.150;11.506;2023-03-24T13:03:04;94906.34;;;16.40;62.50
9839;BME280;4958;48.150;11.506;2023-03-24T13:05:42;94918.78;;;16.38;63.38
9839;BME280;4958;48.150;11.506;2023-03-24T13:08:15;94927.72;;;16.31;64.45
9839;BME280;4958;48.150;11.506;2023-03-24T13:10:44;94936.53;;;16.18;66.95
9839;BME280;4958;48.150;11.506;2023-03-24T13:13:15;94929.63;;;16.00;68.98
9839;BME280;4958;48.150;11.506;2023-03-24T13:15:46;94932.56;;;15.80;69.56
9839;BME280;4958;48.150;11.506;2023-03-24T13:18:23;94930.19;;;15.67;67.66
9839;BME280;4958;48.150;11.506;2023-03-24T13:20:57;94905.03;;;15.56;68.49
9839;BME280;4958;48.150;11.506;2023-03-24T13:23:39;94896.06;;;15.52;68.97
9839;BME280;4958;48.150;11.506;2023-03-24T13:26:16;94891.53;;;15.47;69.89
9839;BME280;4958;48.150;11.506;2023-03-24T13:28:52;94893.22;;;15.42;70.61
9839;BME280;4958;48.150;11.506;2023-03-24T13:31:24;94891.09;;;15.39;70.31
9839;BME280;4958;48.150;11.506;2023-03-24T13:33:53;94895.16;;;15.35;69.69
9839;BME280;4958;48.150;11.506;2023-03-24T13:36:30;94902.47;;;15.38;70.01
9839;BME280;4958;48.150;11.506;2023-03-24T13:39:01;94884.78;;;15.35;70.07
9839;BME280;4958;48.150;11.506;2023-03-24T13:41:32;94884.53;;;15.36;69.80
9839;BME280;4958;48.150;11.506;2023-03-24T13:44:06;94871.66;;;15.30;68.40
9839;BME280;4958;48.150;11.506;2023-03-24T13:46:35;94855.75;;;15.26;69.20
9839;BME280;4958;48.150;11.506;2023-03-24T13:49:07;94872.25;;;15.32;68.40
9839;BME280;4958;48.150;11.506;2023-03-24T13:51:41;94876.19;;;15.34;68.00
9839;BME280;4958;48.150;11.506;2023-03-24T13:54:13;94877.66;;;15.30;67.55